sensor_id;sensor_type;location;lat;lon;timestamp;pressure;altitude;pressure_sealevel;temperature;humidity
28354;BME280;15603;50.878;8.036;2023-01-27T00:00:11;143688.19;;;1.79;100.00
28354;BME280;15603;50.878;8.036;2023-01-27T00:02:39;143845.22;;;2.45;100.00
28354;BME280;15603;50.878;8.036;2023-01-27T00:05:06;143836.75;;;2.42;100.00
28354;BME280;15603;50.878;8.036;2023-01-27T00:07:34;143879.03;;;2.60;100.00
28354;BME280;15603;50.878;8.036;2023-01-27T00:10:01;143871.81;;;2.57;100.00
28354;BME280;15603;50.878;8.036;2023-01-27T00:12:28;143886.31;;;2.63;100.00
28354;BME280;15603;50.878;8.036;2023-01-27T00:15:14;143876.63;;;2.59;100.00
28354;BME280;15603;50.878;8.036;2023-01-27T00:17:41;143881.47;;;2.61;100.00
28354;BME280;15603;50.878;8.036;2023-01-27T00:20:08;143870.59;;;2.56;100.00
28354;BME280;15603;50.878;8.036;2023-01-27T00:22:35;143881.47;;;2.61;100.00
28354;BME280;15603;50.878;8.036;2023-01-27T00:25:21;143869.38;;;2.55;100.00
28354;BME280;15603;50.878;8.036;2023-01-27T00:27:47;143871.81;;;2.57;100.00
28354;BME280;15603;50.878;8.036;2023-01-27T00:30:14;143892.31;;;2.65;100.00
28354;BME280;15603;50.878;8.036;2023-01-27T00:32:41;143883.84;;;2.62;100.00
28354;BME280;15603;50.878;8.036;2023-01-27T00:35:26;143888.75;;;2.64;100.00
28354;BME280;15603;50.878;8.036;2023-01-27T00:37:53;143881.47;;;2.61;100.00
28354;BME280;15603;50.878;8.036;2023-01-27T00:40:20;143879.03;;;2.60;100.00
28354;BME280;15603;50.878;8.036;2023-01-27T00:42:47;143883.84;;;2.62;100.00
28354;BME280;15603;50.878;8.036;2023-01-27T00:45:14;143881.47;;;2.61;100.00
28354;BME280;15603;50.878;8.036;2023-01-27T00:47:59;143876.63;;;2.59;100.00
28354;BME280;15603;50.878;8.036;2023-01-27T00:50:26;143883.84;;;2.62;100.00
28354;BME280;15603;50.878;8.036;2023-01-27T00:52:53;143883.84;;;2.62;100.00
28354;BME280;15603;50.878;8.036;2023-01-27T00:55:20;143903.22;;;2.70;100.00
28354;BME280;15603;50.878;8.036;2023-01-27T00:57:47;143898.41;;;2.68;100.00
28354;BME280;15603;50.878;8.036;2023-01-27T01:00:14;143905.63;;;2.71;100.00
28354;BME280;15603;50.878;8.036;2023-01-27T01:02:42;143879.03;;;2.60;100.00
28354;BME280;15603;50.878;8.036;2023-01-27T01:05:09;143888.75;;;2.64;100.00
28354;BME280;15603;50.878;8.036;2023-01-27T01:07:36;143871.81;;;2.57;100.00
28354;BME280;15603;50.878;8.036;2023-01-27T01:10:02;143876.63;;;2.59;100.00
28354;BME280;15603;50.878;8.036;2023-01-27T01:12:29;143876.63;;;2.59;100.00
28354;BME280;15603;50.878;8.036;2023-01-27T01:14:56;143908.06;;;2.72;100.00
28354;BME280;15603;50.878;8.036;2023-01-27T01:17:23;143905.63;;;2.71;100.00
28354;BME280;15603;50.878;8.036;2023-01-27T01:19:50;143910.44;;;2.73;100.00
28354;BME280;15603;50.878;8.036;2023-01-27T01:22:17;143897.16;;;2.67;100.00
28354;BME280;15603;50.878;8.036;2023-01-27T01:24:44;143876.63;;;2.59;100.00
28354;BME280;15603;50.878;8.036;2023-01-27T01:27:11;143894.75;;;2.66;100.00
28354;BME280;15603;50.878;8.036;2023-01-27T01:29:38;143915.28;;;2.75;100.00
28354;BME280;15603;50.878;8.036;2023-01-27T01:32:05;143900.78;;;2.69;100.00
28354;BME280;15603;50.878;8.036;2023-01-27T01:34:36;143870.59;;;2.56;100.00
28354;BME280;15603;50.878;8.036;2023-01-27T01:37:03;143883.84;;;2.62;100.00
28354;BME280;15603;50.878;8.036;2023-01-27T01:39:30;143903.22;;;2.70;100.00
28354;BME280;15603;50.878;8.036;2023-01-27T01:41:57;143888.75;;;2.64;100.00
28354;BME280;15603;50.878;8.036;2023-01-27T01:44:27;143886.31;;;2.63;100.00
28354;BME280;15603;50.878;8.036;2023-01-27T01:46:54;143901.97;;;2.69;100.00
28354;BME280;15603;50.878;8.036;2023-01-27T01:49:23;143888.75;;;2.64;100.00
28354;BME280;15603;50.878;8.036;2023-01-27T01:51:53;143891.13;;;2.65;100.00
28354;BME280;15603;50.878;8.036;2023-01-27T01:56:55;143893.56;;;2.66;100.00
28354;BME280;15603;50.878;8.036;2023-01-27T01:59:26;143889.94;;;2.64;100.00
28354;BME280;15603;50.878;8.036;2023-01-27T02:01:55;143894.75;;;2.66;100.00
28354;BME280;15603;50.878;8.036;2023-01-27T02:04:25;143894.75;;;2.66;100.00
28354;BME280;15603;50.878;8.036;2023-01-27T02:09:20;143893.56;;;2.66;100.00
28354;BME280;15603;50.878;8.036;2023-01-27T02:11:47;143891.13;;;2.65;100.00
28354;BME280;15603;50.878;8.036;2023-01-27T02:14:15;143836.75;;;2.42;100.00
28354;BME280;15603;50.878;8.036;2023-01-27T02:16:42;143842.78;;;2.44;100.00
28354;BME280;15603;50.878;8.036;2023-01-27T02:19:11;143883.84;;;2.62;100.00
28354;BME280;15603;50.878;8.036;2023-01-27T02:21:44;143863.34;;;2.53;100.00
28354;BME280;15603;50.878;8.036;2023-01-27T02:24:11;143840.38;;;2.43;100.00
28354;BME280;15603;50.878;8.036;2023-01-27T02:26:42;143837.94;;;2.42;100.00
28354;BME280;15603;50.878;8.036;2023-01-27T02:29:11;143851.25;;;2.48;100.00
28354;BME280;15603;50.878;8.036;2023-01-27T02:31:39;143846.41;;;2.46;100.00
28354;BME280;15603;50.878;8.036;2023-01-27T02:34:08;143829.50;;;2.39;100.00
28354;BME280;15603;50.878;8.036;2023-01-27T02:36:40;143823.47;;;2.36;100.00
28354;BME280;15603;50.878;8.036;2023-01-27T02:39:11;143829.50;;;2.39;100.00
28354;BME280;15603;50.878;8.036;2023-01-27T02:41:40;143806.53;;;2.29;100.00
28354;BME280;15603;50.878;8.036;2023-01-27T02:44:09;143852.47;;;2.48;100.00
28354;BME280;15603;50.878;8.036;2023-01-27T02:46:37;143816.25;;;2.33;100.00
28354;BME280;15603;50.878;8.036;2023-01-27T02:49:06;143825.91;;;2.37;100.00
28354;BME280;15603;50.878;8.036;2023-01-27T02:51:33;143828.28;;;2.38;100.00
28354;BME280;15603;50.878;8.036;2023-01-27T02:54:00;143831.94;;;2.40;100.00
28354;BME280;15603;50.878;8.036;2023-01-27T02:56:27;143825.91;;;2.37;100.00
28354;BME280;15603;50.878;8.036;2023-01-27T02:58:56;143813.81;;;2.32;100.00
28354;BME280;15603;50.878;8.036;2023-01-27T03:01:29;143830.72;;;2.39;100.00
28354;BME280;15603;50.878;8.036;2023-01-27T03:03:58;143844.03;;;2.45;100.00
28354;BME280;15603;50.878;8.036;2023-01-27T03:06:25;143813.81;;;2.32;100.00
28354;BME280;15603;50.878;8.036;2023-01-27T03:08:52;143831.94;;;2.40;100.00
28354;BME280;15603;50.878;8.036;2023-01-27T03:11:19;143811.38;;;2.31;100.00
28354;BME280;15603;50.878;8.036;2023-01-27T03:14:06;143833.13;;;2.40;100.00
28354;BME280;15603;50.878;8.036;2023-01-27T03:16:33;143830.72;;;2.39;100.00
28354;BME280;15603;50.878;8.036;2023-01-27T03:19:18;143834.38;;;2.41;100.00
28354;BME280;15603;50.878;8.036;2023-01-27T03:21:45;143824.66;;;2.36;100.00
28354;BME280;15603;50.878;8.036;2023-01-27T03:24:17;143833.13;;;2.40;100.00
28354;BME280;15603;50.878;8.036;2023-01-27T03:26:45;143821.06;;;2.35;100.00
28354;BME280;15603;50.878;8.036;2023-01-27T03:29:14;143835.56;;;2.41;100.00
28354;BME280;15603;50.878;8.036;2023-01-27T03:32:00;143822.28;;;2.35;100.00
28354;BME280;15603;50.878;8.036;2023-01-27T03:34:28;143811.38;;;2.31;100.00
28354;BME280;15603;50.878;8.036;2023-01-27T03:37:03;143818.63;;;2.34;100.00
28354;BME280;15603;50.878;8.036;2023-01-27T03:39:49;143840.38;;;2.43;100.00
28354;BME280;15603;50.878;8.036;2023-01-27T03:42:35;143816.25;;;2.33;100.00
28354;BME280;15603;50.878;8.036;2023-01-27T03:45:21;143833.13;;;2.40;100.00
28354;BME280;15603;50.878;8.036;2023-01-27T03:48:06;143821.06;;;2.35;100.00
28354;BME280;15603;50.878;8.036;2023-01-27T03:50:33;143825.91;;;2.37;100.00
28354;BME280;15603;50.878;8.036;2023-01-27T03:53:09;143828.28;;;2.38;100.00
28354;BME280;15603;50.878;8.036;2023-01-27T03:55:36;143833.13;;;2.40;100.00
28354;BME280;15603;50.878;8.036;2023-01-27T03:58:03;143835.56;;;2.41;100.00
28354;BME280;15603;50.878;8.036;2023-01-27T04:00:44;143816.25;;;2.33;100.00
28354;BME280;15603;50.878;8.036;2023-01-27T04:03:11;143828.28;;;2.38;100.00
28354;BME280;15603;50.878;8.036;2023-01-27T04:05:57;143816.25;;;2.33;100.00
28354;BME280;15603;50.878;8.036;2023-01-27T04:08:46;143835.56;;;2.41;100.00
28354;BME280;15603;50.878;8.036;2023-01-27T04:11:13;143804.16;;;2.28;100.00
28354;BME280;15603;50.878;8.036;2023-01-27T04:14:00;143816.25;;;2.33;100.00
28354;BME280;15603;50.878;8.036;2023-01-27T04:16:27;143816.25;;;2.33;100.00
28354;BME280;15603;50.878;8.036;2023-01-27T04:18:56;143817.44;;;2.33;100.00
28354;BME280;15603;50.878;8.036;2023-01-27T04:21:23;143836.75;;;2.42;100.00
28354;BME280;15603;50.878;8.036;2023-01-27T04:23:51;143825.91;;;2.37;100.00
28354;BME280;15603;50.878;8.036;2023-01-27T04:26:18;143821.06;;;2.35;100.00
28354;BME280;15603;50.878;8.036;2023-01-27T04:28:45;143839.19;;;2.43;100.00
28354;BME280;15603;50.878;8.036;2023-01-27T04:31:12;143840.38;;;2.43;100.00
28354;BME280;15603;50.878;8.036;2023-01-27T04:33:41;143827.09;;;2.38;100.00
28354;BME280;15603;50.878;8.036;2023-01-27T04:36:08;143810.16;;;2.30;100.00
28354;BME280;15603;50.878;8.036;2023-01-27T04:38:35;143840.38;;;2.43;100.00
28354;BME280;15603;50.878;8.036;2023-01-27T04:41:02;143818.63;;;2.34;100.00
28354;BME280;15603;50.878;8.036;2023-01-27T04:43:29;143816.25;;;2.33;100.00
28354;BME280;15603;50.878;8.036;2023-01-27T04:45:56;143815.00;;;2.32;100.00
28354;BME280;15603;50.878;8.036;2023-01-27T04:48:22;143808.97;;;2.30;100.00
28354;BME280;15603;50.878;8.036;2023-01-27T04:50:49;143801.72;;;2.27;100.00
28354;BME280;15603;50.878;8.036;2023-01-27T04:53:16;143819.81;;;2.34;100.00
28354;BME280;15603;50.878;8.036;2023-01-27T04:55:45;143815.00;;;2.32;100.00
28354;BME280;15603;50.878;8.036;2023-01-27T04:58:12;143813.81;;;2.32;100.00
28354;BME280;15603;50.878;8.036;2023-01-27T05:00:39;143805.34;;;2.28;100.00
28354;BME280;15603;50.878;8.036;2023-01-27T05:03:06;143804.16;;;2.28;100.00
28354;BME280;15603;50.878;8.036;2023-01-27T05:05:35;143806.53;;;2.29;100.00
28354;BME280;15603;50.878;8.036;2023-01-27T05:08:06;143811.38;;;2.31;100.00
28354;BME280;15603;50.878;8.036;2023-01-27T05:10:33;143823.47;;;2.36;100.00
28354;BME280;15603;50.878;8.036;2023-01-27T05:13:00;143795.69;;;2.24;100.00
28354;BME280;15603;50.878;8.036;2023-01-27T05:15:28;143808.97;;;2.30;100.00
28354;BME280;15603;50.878;8.036;2023-01-27T05:17:55;143811.38;;;2.31;100.00
28354;BME280;15603;50.878;8.036;2023-01-27T05:20:22;143823.47;;;2.36;100.00
28354;BME280;15603;50.878;8.036;2023-01-27T05:22:49;143815.00;;;2.32;100.00
28354;BME280;15603;50.878;8.036;2023-01-27T05:25:16;143827.09;;;2.38;100.00
28354;BME280;15603;50.878;8.036;2023-01-27T05:27:43;143821.06;;;2.35;100.00
28354;BME280;15603;50.878;8.036;2023-01-27T05:30:10;143825.91;;;2.37;100.00
28354;BME280;15603;50.878;8.036;2023-01-27T05:32:37;143816.25;;;2.33;100.00
28354;BME280;15603;50.878;8.036;2023-01-27T05:35:04;143777.56;;;2.16;100.00
28354;BME280;15603;50.878;8.036;2023-01-27T05:37:31;143799.31;;;2.26;100.00
28354;BME280;15603;50.878;8.036;2023-01-27T05:39:58;143799.31;;;2.26;100.00
28354;BME280;15603;50.878;8.036;2023-01-27T05:42:25;143800.50;;;2.26;100.00
28354;BME280;15603;50.878;8.036;2023-01-27T05:44:52;143801.72;;;2.27;100.00
28354;BME280;15603;50.878;8.036;2023-01-27T05:47:19;143811.38;;;2.31;100.00
28354;BME280;15603;50.878;8.036;2023-01-27T05:49:46;143821.06;;;2.35;100.00
28354;BME280;15603;50.878;8.036;2023-01-27T05:52:12;143818.63;;;2.34;100.00
28354;BME280;15603;50.878;8.036;2023-01-27T05:54:39;143808.97;;;2.30;100.00
28354;BME280;15603;50.878;8.036;2023-01-27T05:57:06;143846.41;;;2.46;100.00
28354;BME280;15603;50.878;8.036;2023-01-27T05:59:33;143821.06;;;2.35;100.00
28354;BME280;15603;50.878;8.036;2023-01-27T06:02:00;143819.81;;;2.34;100.00
28354;BME280;15603;50.878;8.036;2023-01-27T06:04:27;143818.63;;;2.34;100.00
28354;BME280;15603;50.878;8.036;2023-01-27T06:06:54;143836.75;;;2.42;100.00
28354;BME280;15603;50.878;8.036;2023-01-27T06:09:21;143818.63;;;2.34;100.00
28354;BME280;15603;50.878;8.036;2023-01-27T06:11:48;143833.13;;;2.40;100.00
28354;BME280;15603;50.878;8.036;2023-01-27T06:14:14;143821.06;;;2.35;100.00
28354;BME280;15603;50.878;8.036;2023-01-27T06:16:41;143825.91;;;2.37;100.00
28354;BME280;15603;50.878;8.036;2023-01-27T06:19:09;143833.13;;;2.40;100.00
28354;BME280;15603;50.878;8.036;2023-01-27T06:21:37;143845.22;;;2.45;100.00
28354;BME280;15603;50.878;8.036;2023-01-27T06:24:03;143831.94;;;2.40;100.00
28354;BME280;15603;50.878;8.036;2023-01-27T06:26:30;143852.47;;;2.48;100.00
28354;BME280;15603;50.878;8.036;2023-01-27T06:28:57;143879.03;;;2.60;100.00
28354;BME280;15603;50.878;8.036;2023-01-27T06:31:24;143863.34;;;2.53;100.00
28354;BME280;15603;50.878;8.036;2023-01-27T06:33:53;143850.03;;;2.47;100.00
28354;BME280;15603;50.878;8.036;2023-01-27T06:36:20;143835.56;;;2.41;100.00
28354;BME280;15603;50.878;8.036;2023-01-27T06:38:47;143854.88;;;2.49;100.00
28354;BME280;15603;50.878;8.036;2023-01-27T06:41:14;143862.16;;;2.52;100.00
28354;BME280;15603;50.878;8.036;2023-01-27T06:43:41;143848.84;;;2.47;100.00
28354;BME280;15603;50.878;8.036;2023-01-27T06:46:08;143852.47;;;2.48;100.00
28354;BME280;15603;50.878;8.036;2023-01-27T06:48:35;143864.53;;;2.53;100.00
28354;BME280;15603;50.878;8.036;2023-01-27T06:51:03;143876.63;;;2.59;100.00
28354;BME280;15603;50.878;8.036;2023-01-27T06:53:30;143871.81;;;2.57;100.00
28354;BME280;15603;50.878;8.036;2023-01-27T06:55:58;143893.56;;;2.66;100.00
28354;BME280;15603;50.878;8.036;2023-01-27T06:58:26;143871.81;;;2.57;100.00
28354;BME280;15603;50.878;8.036;2023-01-27T07:00:53;143860.91;;;2.52;100.00
28354;BME280;15603;50.878;8.036;2023-01-27T07:03:21;143860.91;;;2.52;100.00
28354;BME280;15603;50.878;8.036;2023-01-27T07:05:48;143850.03;;;2.47;100.00
28354;BME280;15603;50.878;8.036;2023-01-27T07:08:15;143860.91;;;2.52;100.00
28354;BME280;15603;50.878;8.036;2023-01-27T07:10:42;143871.81;;;2.57;100.00
28354;BME280;15603;50.878;8.036;2023-01-27T07:13:10;143881.47;;;2.61;100.00
28354;BME280;15603;50.878;8.036;2023-01-27T07:15:37;143891.13;;;2.65;100.00
28354;BME280;15603;50.878;8.036;2023-01-27T07:18:04;143869.38;;;2.55;100.00
28354;BME280;15603;50.878;8.036;2023-01-27T07:20:31;143874.19;;;2.58;100.00
28354;BME280;15603;50.878;8.036;2023-01-27T07:22:59;143879.03;;;2.60;100.00
28354;BME280;15603;50.878;8.036;2023-01-27T07:25:26;143840.38;;;2.43;100.00
28354;BME280;15603;50.878;8.036;2023-01-27T07:27:55;143882.66;;;2.61;100.00
28354;BME280;15603;50.878;8.036;2023-01-27T07:30:23;143876.63;;;2.59;100.00
28354;BME280;15603;50.878;8.036;2023-01-27T07:32:50;143881.47;;;2.61;100.00
28354;BME280;15603;50.878;8.036;2023-01-27T07:35:17;143886.31;;;2.63;100.00
28354;BME280;15603;50.878;8.036;2023-01-27T07:37:44;143895.97;;;2.67;100.00
28354;BME280;15603;50.878;8.036;2023-01-27T07:40:11;143915.28;;;2.75;100.00
28354;BME280;15603;50.878;8.036;2023-01-27T07:42:39;143922.56;;;2.78;100.00
28354;BME280;15603;50.878;8.036;2023-01-27T07:45:07;143917.72;;;2.76;100.00
28354;BME280;15603;50.878;8.036;2023-01-27T07:47:34;143915.28;;;2.75;100.00
28354;BME280;15603;50.878;8.036;2023-01-27T07:50:00;143921.34;;;2.78;100.00
28354;BME280;15603;50.878;8.036;2023-01-27T07:52:27;143918.91;;;2.77;100.00
28354;BME280;15603;50.878;8.036;2023-01-27T07:54:54;143823.47;;;2.36;100.00
28354;BME280;15603;50.878;8.036;2023-01-27T07:57:21;143955.16;;;2.92;100.00
28354;BME280;15603;50.878;8.036;2023-01-27T07:59:48;143975.75;;;3.01;100.00
28354;BME280;15603;50.878;8.036;2023-01-27T08:02:18;143982.97;;;3.04;100.00
28354;BME280;15603;50.878;8.036;2023-01-27T08:04:47;143998.69;;;3.10;100.00
28354;BME280;15603;50.878;8.036;2023-01-27T08:07:19;143995.06;;;3.09;100.00
28354;BME280;15603;50.878;8.036;2023-01-27T08:09:46;143951.53;;;2.90;100.00
28354;BME280;15603;50.878;8.036;2023-01-27T08:12:13;143957.59;;;2.93;100.00
28354;BME280;15603;50.878;8.036;2023-01-27T08:14:40;143990.25;;;3.07;100.00
28354;BME280;15603;50.878;8.036;2023-01-27T08:17:07;144001.09;;;3.11;100.00
28354;BME280;15603;50.878;8.036;2023-01-27T08:19:34;144009.56;;;3.15;100.00
28354;BME280;15603;50.878;8.036;2023-01-27T08:22:01;143996.25;;;3.09;100.00
28354;BME280;15603;50.878;8.036;2023-01-27T08:24:28;144002.34;;;3.12;100.00
28354;BME280;15603;50.878;8.036;2023-01-27T08:26:55;144007.16;;;3.14;100.00
28354;BME280;15603;50.878;8.036;2023-01-27T08:29:22;144001.09;;;3.11;100.00
28354;BME280;15603;50.878;8.036;2023-01-27T08:31:49;144053.09;;;3.33;100.00
28354;BME280;15603;50.878;8.036;2023-01-27T08:34:16;144002.34;;;3.12;100.00
28354;BME280;15603;50.878;8.036;2023-01-27T08:36:43;144005.94;;;3.13;100.00
28354;BME280;15603;50.878;8.036;2023-01-27T08:39:10;144026.50;;;3.22;100.00
28354;BME280;15603;50.878;8.036;2023-01-27T08:41:37;144016.84;;;3.18;100.00
28354;BME280;15603;50.878;8.036;2023-01-27T08:44:04;143999.91;;;3.11;100.00
28354;BME280;15603;50.878;8.036;2023-01-27T08:46:32;144053.09;;;3.33;100.00
28354;BME280;15603;50.878;8.036;2023-01-27T08:48:59;144066.41;;;3.39;100.00
28354;BME280;15603;50.878;8.036;2023-01-27T08:51:26;144096.59;;;3.52;100.00
28354;BME280;15603;50.878;8.036;2023-01-27T08:53:53;144099.03;;;3.53;100.00
28354;BME280;15603;50.878;8.036;2023-01-27T08:56:20;144115.97;;;3.60;100.00
28354;BME280;15603;50.878;8.036;2023-01-27T08:58:47;144142.59;;;3.71;100.00
28354;BME280;15603;50.878;8.036;2023-01-27T09:01:15;144119.56;;;3.62;100.00
28354;BME280;15603;50.878;8.036;2023-01-27T09:03:42;144159.50;;;3.79;100.00
28354;BME280;15603;50.878;8.036;2023-01-27T09:06:09;144177.63;;;3.86;100.00
28354;BME280;15603;50.878;8.036;2023-01-27T09:08:37;144195.78;;;3.94;100.00
28354;BME280;15603;50.878;8.036;2023-01-27T09:11:22;144169.16;;;3.83;100.00
28354;BME280;15603;50.878;8.036;2023-01-27T09:13:49;144149.81;;;3.74;100.00
28354;BME280;15603;50.878;8.036;2023-01-27T09:16:16;144160.72;;;3.79;100.00
28354;BME280;15603;50.878;8.036;2023-01-27T09:18:43;144176.44;;;3.86;100.00
28354;BME280;15603;50.878;8.036;2023-01-27T09:21:09;144174.00;;;3.85;100.00
28354;BME280;15603;50.878;8.036;2023-01-27T09:23:36;144217.56;;;4.03;100.00
28354;BME280;15603;50.878;8.036;2023-01-27T09:26:03;144250.22;;;4.17;100.00
28354;BME280;15603;50.878;8.036;2023-01-27T09:28:30;144256.28;;;4.20;100.00
28354;BME280;15603;50.878;8.036;2023-01-27T09:30:57;144246.56;;;4.16;100.00
28354;BME280;15603;50.878;8.036;2023-01-27T09:33:25;144290.16;;;4.34;100.00
28354;BME280;15603;50.878;8.036;2023-01-27T09:36:00;144292.59;;;4.35;100.00
28354;BME280;15603;50.878;8.036;2023-01-27T09:38:30;144304.66;;;4.40;100.00
28354;BME280;15603;50.878;8.036;2023-01-27T09:41:21;144313.13;;;4.44;100.00
28354;BME280;15603;50.878;8.036;2023-01-27T09:54:24;144362.75;;;4.65;99.67
28354;BME280;15603;50.878;8.036;2023-01-27T10:04:42;144362.75;;;4.65;100.00
28354;BME280;15603;50.878;8.036;2023-01-27T10:07:19;144347.03;;;4.58;99.78
28354;BME280;15603;50.878;8.036;2023-01-27T10:10:14;144326.44;;;4.49;99.47
28354;BME280;15603;50.878;8.036;2023-01-27T10:12:46;144349.44;;;4.59;99.22
28354;BME280;15603;50.878;8.036;2023-01-27T10:15:34;144389.38;;;4.76;98.56
28354;BME280;15603;50.878;8.036;2023-01-27T10:18:14;144440.22;;;4.98;97.92
28354;BME280;15603;50.878;8.036;2023-01-27T10:20:53;144452.34;;;5.03;97.29
28354;BME280;15603;50.878;8.036;2023-01-27T10:26:03;144454.72;;;5.04;96.15
28354;BME280;15603;50.878;8.036;2023-01-27T10:28:37;144452.34;;;5.03;96.13
28354;BME280;15603;50.878;8.036;2023-01-27T10:31:09;144488.66;;;5.18;96.18
28354;BME280;15603;50.878;8.036;2023-01-27T10:36:07;144481.38;;;5.15;95.76
28354;BME280;15603;50.878;8.036;2023-01-27T10:46:43;144474.13;;;5.12;96.28
28354;BME280;15603;50.878;8.036;2023-01-27T10:49:19;144443.84;;;4.99;96.59
28354;BME280;15603;50.878;8.036;2023-01-27T10:52:12;144445.06;;;5.00;97.29
28354;BME280;15603;50.878;8.036;2023-01-27T10:54:37;144495.88;;;5.21;96.91
28354;BME280;15603;50.878;8.036;2023-01-27T10:59:43;144416.00;;;4.87;98.35
28354;BME280;15603;50.878;8.036;2023-01-27T11:02:39;144431.72;;;4.94;99.44
28354;BME280;15603;50.878;8.036;2023-01-27T11:05:08;144396.66;;;4.79;99.80
28354;BME280;15603;50.878;8.036;2023-01-27T11:07:40;144423.25;;;4.90;100.00
28354;BME280;15603;50.878;8.036;2023-01-27T11:10:15;144418.41;;;4.88;100.00
28354;BME280;15603;50.878;8.036;2023-01-27T11:12:44;144422.06;;;4.90;100.00
28354;BME280;15603;50.878;8.036;2023-01-27T11:15:18;144345.78;;;4.58;100.00
28354;BME280;15603;50.878;8.036;2023-01-27T11:17:50;144362.75;;;4.65;100.00
28354;BME280;15603;50.878;8.036;2023-01-27T11:22:59;144396.66;;;4.79;100.00
28354;BME280;15603;50.878;8.036;2023-01-27T11:33:19;144324.06;;;4.48;100.00
28354;BME280;15603;50.878;8.036;2023-01-27T11:35:48;144353.06;;;4.61;100.00
28354;BME280;15603;50.878;8.036;2023-01-27T11:38:17;144371.22;;;4.68;100.00
28354;BME280;15603;50.878;8.036;2023-01-27T11:40:45;144367.59;;;4.67;100.00
28354;BME280;15603;50.878;8.036;2023-01-27T11:43:14;144414.81;;;4.87;100.00
28354;BME280;15603;50.878;8.036;2023-01-27T11:45:42;144452.34;;;5.03;100.00
28354;BME280;15603;50.878;8.036;2023-01-27T11:48:12;144471.69;;;5.11;100.00
28354;BME280;15603;50.878;8.036;2023-01-27T11:50:40;144445.06;;;5.00;100.00
28354;BME280;15603;50.878;8.036;2023-01-27T11:55:36;144483.81;;;5.16;100.00
28354;BME280;15603;50.878;8.036;2023-01-27T11:58:10;144520.13;;;5.31;100.00
28354;BME280;15603;50.878;8.036;2023-01-27T12:03:42;144495.88;;;5.21;100.00
28354;BME280;15603;50.878;8.036;2023-01-27T12:06:13;144454.72;;;5.04;100.00
28354;BME280;15603;50.878;8.036;2023-01-27T12:08:45;144491.03;;;5.19;100.00
28354;BME280;15603;50.878;8.036;2023-01-27T12:11:16;144505.59;;;5.25;100.00
28354;BME280;15603;50.878;8.036;2023-01-27T12:13:47;144539.50;;;5.40;100.00
28354;BME280;15603;50.878;8.036;2023-01-27T12:16:14;144539.50;;;5.40;100.00
28354;BME280;15603;50.878;8.036;2023-01-27T12:18:51;144492.28;;;5.20;100.00
28354;BME280;15603;50.878;8.036;2023-01-27T12:21:19;144527.38;;;5.35;100.00
28354;BME280;15603;50.878;8.036;2023-01-27T12:23:48;144597.63;;;5.64;100.00
28354;BME280;15603;50.878;8.036;2023-01-27T12:26:27;144670.34;;;5.95;99.04
28354;BME280;15603;50.878;8.036;2023-01-27T12:29:03;144667.88;;;5.94;98.30
28354;BME280;15603;50.878;8.036;2023-01-27T12:31:31;144636.38;;;5.81;97.97
28354;BME280;15603;50.878;8.036;2023-01-27T12:34:20;144561.31;;;5.49;98.61
28354;BME280;15603;50.878;8.036;2023-01-27T12:36:48;144495.88;;;5.21;98.76
28354;BME280;15603;50.878;8.036;2023-01-27T12:39:27;144498.31;;;5.22;99.35
28354;BME280;15603;50.878;8.036;2023-01-27T12:41:56;144527.38;;;5.35;100.00
28354;BME280;15603;50.878;8.036;2023-01-27T12:44:23;144541.88;;;5.41;100.00
28354;BME280;15603;50.878;8.036;2023-01-27T12:46:59;144532.22;;;5.37;99.77
28354;BME280;15603;50.878;8.036;2023-01-27T12:49:29;144527.38;;;5.35;99.29
28354;BME280;15603;50.878;8.036;2023-01-27T12:51:59;144503.16;;;5.24;99.11
28354;BME280;15603;50.878;8.036;2023-01-27T12:54:28;144522.53;;;5.32;99.47
28354;BME280;15603;50.878;8.036;2023-01-27T12:56:55;144512.84;;;5.28;96.50
28354;BME280;15603;50.878;8.036;2023-01-27T12:59:26;144515.28;;;5.29;96.54
28354;BME280;15603;50.878;8.036;2023-01-27T13:04:23;144514.06;;;5.29;95.41
28354;BME280;15603;50.878;8.036;2023-01-27T13:09:26;144509.22;;;5.27;94.58
28354;BME280;15603;50.878;8.036;2023-01-27T13:11:55;144515.28;;;5.29;93.96
28354;BME280;15603;50.878;8.036;2023-01-27T13:14:23;144508.00;;;5.26;94.89
28354;BME280;15603;50.878;8.036;2023-01-27T13:16:54;144544.34;;;5.42;95.05
28354;BME280;15603;50.878;8.036;2023-01-27T13:19:23;144516.50;;;5.30;95.27
28354;BME280;15603;50.878;8.036;2023-01-27T13:21:52;144552.81;;;5.45;93.85
28354;BME280;15603;50.878;8.036;2023-01-27T13:24:23;144539.50;;;5.40;94.93
28354;BME280;15603;50.878;8.036;2023-01-27T13:26:53;144563.69;;;5.50;94.80
28354;BME280;15603;50.878;8.036;2023-01-27T13:29:22;144585.50;;;5.59;94.63
28354;BME280;15603;50.878;8.036;2023-01-27T13:34:47;144578.22;;;5.56;93.62
28354;BME280;15603;50.878;8.036;2023-01-27T13:45:11;144556.47;;;5.47;93.38
28354;BME280;15603;50.878;8.036;2023-01-27T13:52:58;144556.47;;;5.47;94.15
28354;BME280;15603;50.878;8.036;2023-01-27T14:00:36;144498.31;;;5.22;94.41
28354;BME280;15603;50.878;8.036;2023-01-27T14:05:47;144487.44;;;5.18;92.90
28354;BME280;15603;50.878;8.036;2023-01-27T14:10:58;144443.84;;;4.99;93.24
28354;BME280;15603;50.878;8.036;2023-01-27T14:13:36;144486.22;;;5.17;93.43
28354;BME280;15603;50.878;8.036;2023-01-27T14:16:14;144443.84;;;4.99;95.27
28354;BME280;15603;50.878;8.036;2023-01-27T14:19:06;144500.72;;;5.23;94.48
28354;BME280;15603;50.878;8.036;2023-01-27T14:21:37;144459.56;;;5.06;95.81
28354;BME280;15603;50.878;8.036;2023-01-27T14:24:57;144417.22;;;4.88;95.95
28354;BME280;15603;50.878;8.036;2023-01-27T14:35:13;144478.97;;;5.14;95.60
28354;BME280;15603;50.878;8.036;2023-01-27T14:40:17;144468.03;;;5.09;95.29
28354;BME280;15603;50.878;8.036;2023-01-27T14:43:23;144440.22;;;4.98;95.99